Time;durP1;ratioP1;P1;durP2;ratioP2;P2;SDS_P1;SDS_P2;PMS_P1;PMS_P2;Temp;Humidity;BMP_temperature;BMP_pressure;BME280_temperature;BME280_humidity;BME280_pressure;Samples;Min_cycle;Max_cycle;Signal;HPM_P1;HPM_P2
2022/05/27 00:01:43;;;;;;;11.43;4.90;;;14.10;99.90;;;;;;5033239;28;20632;-71
2022/05/27 00:04:11;;;;;;;8.77;4.53;;;14.00;99.90;;;;;;5033727;28;20236;-71
2022/05/27 00:06:40;;;;;;;9.77;5.07;;;14.10;99.90;;;;;;5033083;28;20323;-71
2022/05/27 00:09:08;;;;;;;9.93;5.17;;;14.10;99.90;;;;;;5033077;28;20298;-71
2022/05/27 00:11:36;;;;;;;9.97;4.70;;;14.10;99.90;;;;;;5022321;28;20247;-71
2022/05/27 00:14:04;;;;;;;11.43;5.17;;;14.10;99.90;;;;;;5033114;28;20233;-71
2022/05/27 00:16:32;;;;;;;8.77;4.93;;;14.10;99.90;;;;;;5033130;28;20232;-71
2022/05/27 00:19:02;;;;;;;10.67;5.20;;;14.10;99.90;;;;;;5032577;28;20251;-71
2022/05/27 00:21:30;;;;;;;9.27;5.10;;;14.10;99.90;;;;;;5032247;28;20260;-71
2022/05/27 00:23:59;;;;;;;10.57;4.33;;;14.10;99.90;;;;;;5033503;28;20236;-71
2022/05/27 00:26:28;;;;;;;8.80;4.20;;;14.10;99.90;;;;;;5033292;28;20252;-71
2022/05/27 00:28:56;;;;;;;9.97;4.60;;;14.00;99.90;;;;;;5032897;28;20243;-72
2022/05/27 00:31:29;;;;;;;9.23;4.23;;;14.10;99.90;;;;;;5032939;28;20681;-71
2022/05/27 00:33:57;;;;;;;17.17;4.90;;;14.10;99.90;;;;;;5032923;28;20245;-71
2022/05/27 00:36:27;;;;;;;10.30;4.67;;;14.10;99.90;;;;;;5032748;28;20691;-71
2022/05/27 00:38:55;;;;;;;13.13;4.73;;;14.10;99.90;;;;;;5032551;28;20270;-72
2022/05/27 00:41:23;;;;;;;12.23;4.83;;;14.10;99.90;;;;;;5032604;28;20242;-71
2022/05/27 00:43:51;;;;;;;13.87;5.23;;;14.10;99.90;;;;;;5032473;28;20240;-71
2022/05/27 00:46:23;;;;;;;11.23;4.73;;;14.00;99.90;;;;;;5032803;28;20260;-71
2022/05/27 00:48:56;;;;;;;12.73;4.30;;;14.00;99.90;;;;;;5032385;28;20240;-72
2022/05/27 00:51:30;;;;;;;11.63;4.33;;;14.00;99.90;;;;;;5032595;28;20695;-72
2022/05/27 00:54:02;;;;;;;11.97;4.27;;;14.00;99.90;;;;;;5032517;28;20646;-72
2022/05/27 00:56:33;;;;;;;11.13;3.83;;;14.00;99.90;;;;;;5032571;28;20243;-71
2022/05/27 00:59:06;;;;;;;10.83;3.43;;;14.00;99.90;;;;;;5032063;28;20715;-70
2022/05/27 01:01:35;;;;;;;8.17;3.30;;;13.90;99.90;;;;;;4993291;28;20237;-71
2022/05/27 01:04:04;;;;;;;12.03;3.53;;;13.90;99.90;;;;;;4993062;28;20260;-71
2022/05/27 01:06:33;;;;;;;11.03;3.20;;;13.90;99.90;;;;;;4992956;28;20288;-72
2022/05/27 01:09:03;;;;;;;13.90;3.37;;;13.90;99.90;;;;;;4992757;28;20242;-71
2022/05/27 01:11:43;;;;;;;10.70;3.37;;;13.90;99.90;;;;;;4992771;28;20241;-70
2022/05/27 01:14:21;;;;;;;13.83;3.27;;;13.80;99.90;;;;;;4993083;28;20645;-71
2022/05/27 01:17:03;;;;;;;14.20;2.53;;;13.80;99.90;;;;;;4992720;28;20239;-71
2022/05/27 01:20:21;;;;;;;10.30;2.80;;;13.70;99.90;;;;;;4992353;28;20245;-68
2022/05/27 01:23:31;;;;;;;8.80;2.60;;;13.70;99.90;;;;;;4992467;28;20243;-72
2022/05/27 01:26:21;;;;;;;8.23;2.80;;;13.70;99.90;;;;;;4992685;28;20245;-72
2022/05/27 01:28:54;;;;;;;10.50;2.50;;;13.60;99.90;;;;;;4992237;28;20240;-72
2022/05/27 01:31:33;;;;;;;10.60;2.50;;;13.60;99.90;;;;;;4992421;28;20244;-72
2022/05/27 01:34:14;;;;;;;13.63;2.70;;;13.60;99.90;;;;;;4992237;28;20241;-72
2022/05/27 01:36:53;;;;;;;12.03;3.13;;;13.50;99.90;;;;;;4992045;28;20280;-71
2022/05/27 01:39:31;;;;;;;10.20;2.80;;;13.60;99.90;;;;;;4992419;28;20241;-72
2022/05/27 01:42:09;;;;;;;12.47;2.40;;;13.60;99.90;;;;;;4992064;28;20241;-72
2022/05/27 01:44:45;;;;;;;8.40;2.33;;;13.50;99.90;;;;;;4992206;28;20245;-71
2022/05/27 01:47:22;;;;;;;10.40;2.60;;;13.50;99.90;;;;;;4992450;28;20720;-71
2022/05/27 01:49:57;;;;;;;11.03;2.73;;;13.50;99.90;;;;;;4991727;28;20232;-71
2022/05/27 01:52:30;;;;;;;6.73;2.10;;;13.50;99.90;;;;;;4992484;28;20323;-71
2022/05/27 01:55:06;;;;;;;10.97;3.00;;;13.50;99.90;;;;;;4992209;28;20245;-72
2022/05/27 01:57:40;;;;;;;9.67;2.33;;;13.50;99.90;;;;;;4988843;28;20311;-72
2022/05/27 02:00:13;;;;;;;10.30;2.60;;;13.40;99.90;;;;;;5008689;28;20267;-72
2022/05/27 02:02:46;;;;;;;10.20;2.83;;;13.30;99.90;;;;;;5013193;28;20235;-72
2022/05/27 02:05:20;;;;;;;9.13;2.70;;;13.30;99.90;;;;;;5031383;28;20250;-72
2022/05/27 02:07:53;;;;;;;9.20;2.43;;;13.40;99.90;;;;;;5023550;28;20235;-71
2022/05/27 02:10:28;;;;;;;11.60;2.40;;;13.30;99.90;;;;;;5031099;28;20323;-72
2022/05/27 02:13:01;;;;;;;13.80;3.43;;;13.30;99.90;;;;;;5030839;28;20289;-72
2022/05/27 02:15:34;;;;;;;12.77;2.80;;;13.20;99.90;;;;;;5031083;28;20323;-72
2022/05/27 02:18:09;;;;;;;12.90;2.60;;;13.20;99.90;;;;;;5030375;28;20268;-71
2022/05/27 02:20:42;;;;;;;10.07;2.67;;;13.30;99.90;;;;;;5030728;28;20631;-72
2022/05/27 02:23:23;;;;;;;9.50;2.53;;;13.20;99.90;;;;;;5031002;28;20595;-72
2022/05/27 02:25:54;;;;;;;10.70;2.57;;;13.10;99.90;;;;;;5030831;28;20263;-72
2022/05/27 02:28:26;;;;;;;8.90;2.43;;;13.10;99.90;;;;;;5030760;28;20247;-72
2022/05/27 02:30:58;;;;;;;9.17;2.20;;;13.10;99.90;;;;;;5030530;28;20628;-72
2022/05/27 02:36:24;;;;;;;9.13;2.37;;;13.10;99.90;;;;;;5030226;28;20572;-72
2022/05/27 02:38:53;;;;;;;13.60;2.97;;;13.20;99.90;;;;;;5030488;28;20616;-72
2022/05/27 02:41:30;;;;;;;12.43;2.80;;;13.20;99.90;;;;;;5030484;28;20251;-72
2022/05/27 02:44:14;;;;;;;11.50;3.07;;;13.10;99.90;;;;;;5029733;28;20240;-72
2022/05/27 02:46:51;;;;;;;8.00;2.57;;;13.10;99.90;;;;;;5030310;28;20318;-71
2022/05/27 02:49:29;;;;;;;12.07;2.33;;;13.10;99.90;;;;;;5030429;28;20349;-72
2022/05/27 02:52:06;;;;;;;10.20;2.60;;;13.20;99.90;;;;;;5030311;28;20713;-72
2022/05/27 02:54:44;;;;;;;9.00;2.70;;;13.20;99.90;;;;;;5030067;28;20258;-70
2022/05/27 02:57:17;;;;;;;9.87;2.70;;;13.10;99.90;;;;;;5030469;28;20769;-71
2022/05/27 02:59:46;;;;;;;14.17;2.50;;;13.10;99.90;;;;;;5029996;28;20305;-72
2022/05/27 03:02:16;;;;;;;10.10;2.50;;;13.00;99.90;;;;;;5030420;28;20240;-72
2022/05/27 03:04:50;;;;;;;9.43;2.27;;;13.00;99.90;;;;;;5030279;28;20778;-72
2022/05/27 03:07:30;;;;;;;13.67;2.33;;;13.00;99.90;;;;;;5030314;28;20743;-72
2022/05/27 03:10:19;;;;;;;13.07;2.00;;;13.00;99.90;;;;;;5035068;28;20645;-71
2022/05/27 03:13:00;;;;;;;12.87;2.50;;;13.00;99.90;;;;;;5022754;28;20235;-72
2022/05/27 03:15:38;;;;;;;9.50;2.90;;;12.90;99.90;;;;;;5030204;28;20235;-72
2022/05/27 03:18:18;;;;;;;7.33;2.53;;;12.80;99.90;;;;;;5028840;28;20645;-72
2022/05/27 03:20:50;;;;;;;8.73;2.37;;;13.00;99.90;;;;;;5022723;28;20257;-72
2022/05/27 03:23:33;;;;;;;9.37;2.27;;;13.00;99.90;;;;;;5030488;28;20277;-72
2022/05/27 03:26:06;;;;;;;10.80;2.20;;;13.00;99.90;;;;;;5030132;28;20298;-72
2022/05/27 03:28:44;;;;;;;10.30;2.80;;;13.10;99.90;;;;;;5029769;28;20760;-71
2022/05/27 03:31:18;;;;;;;8.17;2.40;;;13.00;99.90;;;;;;5029454;28;20239;-71
2022/05/27 03:33:52;;;;;;;11.53;3.17;;;13.00;99.90;;;;;;5022378;28;20236;-72
2022/05/27 03:36:27;;;;;;;7.57;1.97;;;13.00;99.90;;;;;;5029910;28;20239;-72
2022/05/27 03:39:00;;;;;;;6.53;2.00;;;13.00;99.90;;;;;;5029508;28;20238;-71
2022/05/27 03:41:33;;;;;;;8.30;2.33;;;13.10;99.90;;;;;;5037027;28;20606;-71
2022/05/27 03:44:01;;;;;;;11.83;2.17;;;13.00;99.90;;;;;;5029941;28;20244;-72
2022/05/27 03:46:32;;;;;;;6.17;1.83;;;13.00;99.90;;;;;;5030230;28;20246;-72
2022/05/27 03:49:01;;;;;;;10.33;2.33;;;12.90;99.90;;;;;;5030080;28;20297;-71
2022/05/27 03:51:34;;;;;;;9.23;2.10;;;12.90;99.90;;;;;;5029328;28;20690;-72
2022/05/27 03:54:05;;;;;;;9.70;2.43;;;12.80;99.90;;;;;;5029816;28;20595;-72
2022/05/27 03:56:37;;;;;;;7.53;2.17;;;12.90;99.90;;;;;;5030347;28;20238;-72
2022/05/27 03:59:07;;;;;;;9.77;2.03;;;12.90;99.90;;;;;;5032252;28;20243;-72
2022/05/27 04:01:37;;;;;;;9.23;2.03;;;12.90;99.90;;;;;;5030502;28;20844;-71
2022/05/27 04:04:07;;;;;;;8.80;2.43;;;13.00;99.90;;;;;;5031936;28;20266;-72
2022/05/27 04:06:37;;;;;;;6.03;1.70;;;13.00;99.90;;;;;;5031343;28;20630;-72
2022/05/27 04:09:06;;;;;;;6.57;1.80;;;13.10;99.90;;;;;;5032774;28;20247;-71
2022/05/27 04:11:34;;;;;;;8.47;2.37;;;13.10;99.90;;;;;;5031115;28;20820;-71
2022/05/27 04:14:03;;;;;;;7.07;1.57;;;13.20;99.90;;;;;;5032999;28;20228;-71
2022/05/27 04:16:31;;;;;;;6.83;1.63;;;13.10;99.90;;;;;;5032848;28;20721;-72
2022/05/27 04:19:00;;;;;;;8.50;2.03;;;13.10;99.90;;;;;;5032544;28;20239;-71
2022/05/27 04:21:28;;;;;;;7.80;1.77;;;13.20;99.90;;;;;;5032570;28;20231;-71
2022/05/27 04:23:58;;;;;;;7.77;2.10;;;13.30;99.90;;;;;;5032462;28;20776;-72
2022/05/27 04:26:27;;;;;;;5.27;1.77;;;13.30;99.90;;;;;;5032663;28;20239;-70
2022/05/27 04:28:55;;;;;;;7.93;2.03;;;13.20;99.90;;;;;;5030023;28;20713;-71
2022/05/27 04:31:23;;;;;;;6.60;1.70;;;13.40;99.90;;;;;;5032351;28;20227;-71
2022/05/27 04:33:51;;;;;;;8.00;2.00;;;13.50;99.90;;;;;;5032217;28;20695;-71
2022/05/27 04:36:19;;;;;;;7.13;1.80;;;13.60;99.90;;;;;;5032222;28;20231;-71
2022/05/27 04:38:48;;;;;;;7.37;1.90;;;13.70;99.90;;;;;;5032027;28;20297;-70
2022/05/27 04:41:17;;;;;;;7.97;2.07;;;13.80;99.90;;;;;;5032650;28;20236;-70
2022/05/27 04:43:45;;;;;;;9.27;2.03;;;13.90;99.90;;;;;;5031774;28;20235;-71
2022/05/27 04:46:13;;;;;;;8.50;2.00;;;14.10;99.90;;;;;;5032379;28;20592;-71
2022/05/27 04:48:41;;;;;;;5.67;1.30;;;14.10;99.90;;;;;;5032596;28;20235;-71
2022/05/27 04:51:09;;;;;;;6.77;2.00;;;14.00;99.90;;;;;;5032891;28;20714;-71
2022/05/27 04:53:38;;;;;;;5.93;1.60;;;14.20;99.90;;;;;;5032758;28;20270;-71
2022/05/27 04:56:09;;;;;;;9.97;1.80;;;14.40;99.90;;;;;;5032629;28;20244;-71
2022/05/27 04:58:38;;;;;;;7.27;2.20;;;14.60;99.90;;;;;;5032548;28;20231;-71
2022/05/27 05:01:06;;;;;;;7.63;1.80;;;14.70;99.90;;;;;;5032118;28;20248;-70
2022/05/27 05:03:35;;;;;;;6.67;1.63;;;14.90;99.90;;;;;;5032018;28;20241;-70
2022/05/27 05:06:03;;;;;;;5.20;1.53;;;15.10;99.90;;;;;;5031309;28;20239;-71
2022/05/27 05:08:34;;;;;;;6.83;1.70;;;15.10;99.90;;;;;;5031765;28;20224;-71
2022/05/27 05:11:02;;;;;;;7.03;1.83;;;15.00;99.90;;;;;;5031701;28;20245;-72
2022/05/27 05:13:31;;;;;;;9.63;2.17;;;14.70;99.90;;;;;;5030375;28;20290;-71
2022/05/27 05:16:01;;;;;;;6.73;1.90;;;14.70;99.90;;;;;;5031698;28;20240;-70
2022/05/27 05:18:29;;;;;;;6.17;1.83;;;14.90;99.90;;;;;;5031536;28;20318;-71
2022/05/27 05:20:57;;;;;;;5.47;1.90;;;15.10;99.90;;;;;;5030912;28;20248;-71
2022/05/27 05:23:25;;;;;;;6.57;1.90;;;15.30;99.90;;;;;;5032035;28;20264;-71
2022/05/27 05:25:53;;;;;;;6.40;1.83;;;15.40;99.90;;;;;;5031850;28;20236;-71
2022/05/27 05:28:22;;;;;;;7.93;1.70;;;15.50;99.90;;;;;;5030464;28;20742;-71
2022/05/27 05:30:50;;;;;;;10.03;2.00;;;15.50;99.90;;;;;;5031334;28;20239;-71
2022/05/27 05:33:20;;;;;;;6.43;1.60;;;15.30;99.90;;;;;;5031746;28;20259;-71
2022/05/27 05:35:48;;;;;;;8.43;1.93;;;15.40;99.90;;;;;;5031436;28;20766;-71
2022/05/27 05:38:17;;;;;;;7.83;1.70;;;15.60;99.90;;;;;;5031422;28;20239;-71
2022/05/27 05:40:46;;;;;;;5.27;1.70;;;15.80;99.90;;;;;;5037733;28;20239;-71
2022/05/27 05:43:14;;;;;;;7.47;1.80;;;16.10;99.90;;;;;;5031526;28;20239;-71
2022/05/27 05:45:43;;;;;;;10.30;2.00;;;16.00;99.90;;;;;;5031252;28;20228;-71
2022/05/27 05:48:11;;;;;;;8.53;1.80;;;16.20;99.90;;;;;;5031322;28;20263;-71
2022/05/27 05:50:40;;;;;;;9.10;1.90;;;16.40;99.90;;;;;;5030922;28;20294;-70
2022/05/27 05:53:13;;;;;;;9.57;1.90;;;16.50;99.90;;;;;;5031306;28;20247;-71
2022/05/27 05:55:41;;;;;;;10.70;2.30;;;16.60;99.90;;;;;;5031324;28;20244;-70
2022/05/27 05:58:11;;;;;;;7.80;2.50;;;16.70;99.90;;;;;;5027376;28;20584;-71
2022/05/27 06:00:39;;;;;;;7.57;2.20;;;16.80;99.90;;;;;;5030392;28;20229;-71
2022/05/27 06:03:07;;;;;;;9.50;2.23;;;16.80;99.90;;;;;;5030276;28;20260;-71
2022/05/27 06:05:37;;;;;;;7.73;1.83;;;17.00;99.90;;;;;;5030674;28;20234;-67
2022/05/27 06:08:07;;;;;;;7.77;1.63;;;17.10;99.90;;;;;;5028184;28;20237;-71
2022/05/27 06:10:35;;;;;;;9.83;2.13;;;17.20;99.90;;;;;;5032763;28;20244;-70
2022/05/27 06:13:04;;;;;;;5.10;1.67;;;17.30;99.90;;;;;;5030475;28;20600;-69
2022/05/27 06:15:32;;;;;;;7.80;1.93;;;17.30;99.90;;;;;;5031095;28;20715;-69
2022/05/27 06:18:01;;;;;;;9.70;2.40;;;17.30;99.90;;;;;;5030120;28;20363;-69
2022/05/27 06:20:29;;;;;;;7.50;2.03;;;17.40;99.90;;;;;;5030860;28;20229;-69
2022/05/27 06:22:57;;;;;;;11.27;2.43;;;17.20;99.90;;;;;;5030777;28;20252;-70
2022/05/27 06:25:26;;;;;;;9.27;2.03;;;17.20;99.90;;;;;;5030898;28;20362;-70
2022/05/27 06:34:23;;;;;;;5.67;1.90;;;17.50;99.90;;;;;;5028105;28;20763;-70
2022/05/27 06:36:16;;;;;;;11.03;2.07;;;17.40;99.90;;;;;;5030490;28;20244;-69
2022/05/27 06:38:45;;;;;;;7.70;2.10;;;17.40;99.90;;;;;;5022401;28;20232;-69
2022/05/27 06:41:14;;;;;;;7.63;1.77;;;17.30;99.90;;;;;;5032646;28;20237;-69
2022/05/27 06:43:43;;;;;;;8.23;2.10;;;17.00;99.90;;;;;;5029041;28;20232;-69
2022/05/27 06:46:11;;;;;;;8.00;1.97;;;17.00;99.90;;;;;;5030304;28;20242;-69
2022/05/27 06:48:40;;;;;;;7.93;1.80;;;17.20;99.90;;;;;;5030065;28;20228;-70
2022/05/27 06:51:09;;;;;;;11.13;1.93;;;17.50;99.90;;;;;;5030753;28;20271;-69
2022/05/27 06:53:37;;;;;;;6.53;1.83;;;17.50;99.90;;;;;;5030457;28;20249;-69
2022/05/27 06:56:07;;;;;;;7.37;2.27;;;17.70;99.90;;;;;;5030751;28;20245;-69
2022/05/27 06:58:37;;;;;;;9.17;2.00;;;17.80;99.90;;;;;;5030101;28;20288;-69
2022/05/27 07:01:06;;;;;;;10.23;1.80;;;17.60;99.90;;;;;;5030107;28;20700;-69
2022/05/27 07:03:34;;;;;;;8.93;2.27;;;17.10;99.90;;;;;;5029221;28;20233;-70
2022/05/27 07:06:02;;;;;;;9.03;2.30;;;16.80;99.90;;;;;;5029072;28;20240;-69
2022/05/27 07:08:30;;;;;;;9.47;2.00;;;17.00;99.90;;;;;;5029438;28;20589;-70
2022/05/27 07:10:59;;;;;;;8.50;2.20;;;17.30;99.90;;;;;;5036557;28;20240;-69
2022/05/27 07:13:27;;;;;;;9.47;2.10;;;17.20;99.90;;;;;;5029312;28;20700;-69
2022/05/27 07:15:56;;;;;;;8.00;1.90;;;16.70;99.90;;;;;;5030218;28;20228;-69
2022/05/27 07:18:25;;;;;;;7.03;1.80;;;16.20;99.90;;;;;;5029174;28;20294;-70
2022/05/27 07:21:00;;;;;;;6.63;1.77;;;16.10;99.90;;;;;;5028968;28;20224;-69
2022/05/27 07:23:28;;;;;;;7.00;2.03;;;16.10;99.90;;;;;;5029505;28;20289;-70
2022/05/27 07:25:57;;;;;;;5.27;1.60;;;16.50;99.90;;;;;;5030162;28;20248;-70
2022/05/27 07:28:26;;;;;;;9.33;1.83;;;17.30;99.90;;;;;;5030286;28;20659;-70
2022/05/27 07:30:56;;;;;;;8.80;1.90;;;17.90;99.90;;;;;;5033275;28;20286;-69
2022/05/27 07:33:24;;;;;;;6.27;2.00;;;18.00;99.90;;;;;;5033996;28;20240;-69
2022/05/27 07:35:53;;;;;;;8.33;1.73;;;17.70;99.90;;;;;;5033480;28;20225;-69
2022/05/27 07:38:21;;;;;;;7.30;2.07;;;17.40;99.90;;;;;;5033246;28;20250;-69
2022/05/27 07:40:49;;;;;;;7.67;2.00;;;16.90;99.90;;;;;;5034211;28;20228;-69
2022/05/27 07:43:19;;;;;;;9.37;1.90;;;16.70;99.90;;;;;;5033475;28;20236;-70
2022/05/27 07:45:49;;;;;;;8.60;2.30;;;16.60;99.90;;;;;;5033586;28;20275;-69
2022/05/27 07:48:18;;;;;;;7.63;2.00;;;16.90;99.90;;;;;;5033653;28;20240;-72
2022/05/27 07:50:46;;;;;;;6.60;1.83;;;17.40;99.90;;;;;;5033361;28;20245;-69
2022/05/27 07:53:15;;;;;;;6.50;2.10;;;17.80;99.90;;;;;;5033335;28;20775;-69
2022/05/27 07:55:43;;;;;;;8.40;2.30;;;17.90;99.90;;;;;;5033481;28;20688;-69
2022/05/27 07:58:12;;;;;;;10.10;2.50;;;18.10;99.90;;;;;;5033266;28;20735;-69
2022/05/27 08:00:40;;;;;;;6.40;1.70;;;18.30;99.90;;;;;;5033291;28;20792;-69
2022/05/27 08:03:12;;;;;;;6.90;2.13;;;18.50;99.90;;;;;;5030323;28;20249;-69
2022/05/27 08:05:43;;;;;;;5.93;1.80;;;18.90;99.90;;;;;;5033223;28;20229;-69
2022/05/27 08:08:11;;;;;;;8.67;2.03;;;19.00;99.90;;;;;;5032888;28;20699;-69
2022/05/27 08:10:40;;;;;;;7.73;2.03;;;18.60;99.90;;;;;;5034855;28;20243;-69
2022/05/27 08:13:09;;;;;;;6.87;1.70;;;17.90;99.90;;;;;;5032570;28;20272;-69
2022/05/27 08:15:38;;;;;;;7.20;2.13;;;17.80;99.90;;;;;;5024083;28;20478;-69
2022/05/27 08:18:06;;;;;;;7.07;2.07;;;18.00;99.90;;;;;;5022634;28;20700;-69
2022/05/27 08:20:38;;;;;;;8.90;2.30;;;18.50;99.90;;;;;;5032450;28;20312;-69
2022/05/27 08:23:08;;;;;;;7.17;1.90;;;18.30;99.90;;;;;;5033151;28;20238;-69
2022/05/27 08:25:38;;;;;;;12.07;2.80;;;18.60;99.90;;;;;;5033175;28;20241;-69
2022/05/27 08:28:07;;;;;;;9.63;2.57;;;18.50;99.90;;;;;;5033054;28;20246;-69
2022/05/27 08:30:37;;;;;;;9.30;2.30;;;18.50;99.90;;;;;;5033128;28;20233;-69
2022/05/27 08:33:06;;;;;;;7.47;2.10;;;18.10;99.90;;;;;;5032926;28;20781;-69
2022/05/27 08:38:28;;;;;;;11.50;2.30;;;17.50;99.90;;;;;;5032342;28;20566;-69
2022/05/27 08:41:21;;;;;;;10.67;2.27;;;17.50;99.90;;;;;;5025488;28;20308;-69
2022/05/27 08:44:10;;;;;;;8.20;2.43;;;17.70;99.90;;;;;;5025233;28;20263;-69
2022/05/27 08:46:46;;;;;;;10.67;2.57;;;17.60;99.90;;;;;;5031793;28;20684;-67
2022/05/27 08:49:19;;;;;;;13.13;2.43;;;17.20;99.90;;;;;;5032148;28;20245;-70
2022/05/27 08:51:53;;;;;;;8.63;2.30;;;17.10;99.90;;;;;;5032207;28;20241;-69
2022/05/27 08:54:25;;;;;;;10.63;2.43;;;16.00;99.90;;;;;;5032467;28;20241;-68
2022/05/27 08:59:45;;;;;;;10.10;2.10;;;15.20;99.90;;;;;;5031874;28;20868;-68
2022/05/27 09:02:20;;;;;;;10.10;2.20;;;15.10;99.90;;;;;;5026565;28;20310;-69
2022/05/27 09:04:53;;;;;;;8.73;2.30;;;15.30;99.90;;;;;;5022255;28;20595;-69
2022/05/27 09:07:32;;;;;;;6.43;2.20;;;15.50;99.90;;;;;;5022728;28;20566;-67
2022/05/27 09:10:05;;;;;;;10.40;2.90;;;15.90;99.90;;;;;;5022264;28;20255;-68
2022/05/27 09:12:45;;;;;;;9.63;2.60;;;16.40;99.90;;;;;;5021916;28;20263;-67
2022/05/27 09:15:26;;;;;;;10.40;3.00;;;16.80;99.90;;;;;;5022645;28;20287;-69
2022/05/27 09:18:02;;;;;;;8.33;2.73;;;17.20;99.90;;;;;;5021842;28;20232;-69
2022/05/27 09:20:39;;;;;;;9.17;2.83;;;17.90;99.90;;;;;;5021784;28;20294;-68
2022/05/27 09:23:19;;;;;;;7.27;2.40;;;18.30;99.90;;;;;;5021072;28;20246;-68
2022/05/27 09:25:58;;;;;;;10.00;2.57;;;18.40;99.90;;;;;;5022575;28;20243;-68
2022/05/27 09:28:35;;;;;;;12.47;3.10;;;18.60;99.90;;;;;;5021349;28;20775;-68
2022/05/27 09:31:07;;;;;;;8.47;2.80;;;19.00;99.90;;;;;;5020175;28;20741;-69
2022/05/27 09:33:37;;;;;;;9.23;2.27;;;18.50;99.90;;;;;;5021604;28;20634;-68
2022/05/27 09:36:10;;;;;;;6.67;1.97;;;18.30;99.90;;;;;;5022283;28;20249;-68
2022/05/27 09:38:46;;;;;;;10.83;2.10;;;18.00;99.90;;;;;;5022937;28;20241;-68
2022/05/27 09:41:24;;;;;;;7.80;2.23;;;18.20;99.90;;;;;;5019441;28;20729;-68
2022/05/27 09:43:57;;;;;;;9.80;2.57;;;18.30;99.90;;;;;;5022154;28;20605;-68
2022/05/27 09:46:28;;;;;;;8.47;2.33;;;18.00;99.90;;;;;;5020770;28;20253;-67
2022/05/27 09:48:57;;;;;;;10.30;2.30;;;17.40;99.90;;;;;;5021118;28;20276;-68
2022/05/27 09:51:30;;;;;;;10.10;2.33;;;16.80;99.90;;;;;;5019790;28;20620;-68
2022/05/27 09:54:04;;;;;;;8.67;2.23;;;16.30;99.90;;;;;;5020878;28;20279;-68
2022/05/27 09:56:39;;;;;;;9.50;2.40;;;16.80;99.90;;;;;;5020271;28;20271;-69
2022/05/27 09:59:22;;;;;;;12.40;2.40;;;17.70;99.90;;;;;;5021189;28;20293;-69
2022/05/27 10:01:51;;;;;;;9.53;2.50;;;18.30;99.90;;;;;;5019174;28;20323;-68
2022/05/27 10:04:21;;;;;;;14.10;2.70;;;18.70;99.90;;;;;;5023212;28;20247;-68
2022/05/27 10:06:49;;;;;;;9.77;2.33;;;18.40;99.90;;;;;;5022145;28;20227;-68
2022/05/27 10:09:28;;;;;;;12.67;3.13;;;18.20;99.90;;;;;;5021040;28;20247;-69
2022/05/27 10:11:58;;;;;;;10.20;2.57;;;18.00;99.90;;;;;;5019371;28;20258;-69
2022/05/27 10:14:29;;;;;;;8.63;2.43;;;18.10;99.90;;;;;;5019958;28;20245;-69
2022/05/27 10:17:07;;;;;;;10.87;2.97;;;18.10;99.90;;;;;;5020808;28;20234;-69
2022/05/27 10:19:44;;;;;;;10.97;2.80;;;18.20;99.90;;;;;;5023673;28;20240;-67
2022/05/27 10:22:23;;;;;;;12.73;2.80;;;18.60;99.90;;;;;;5021959;28;20250;-67
2022/05/27 10:24:59;;;;;;;11.50;2.97;;;18.40;99.90;;;;;;5021334;28;20288;-69
2022/05/27 10:27:35;;;;;;;9.33;2.63;;;18.00;99.90;;;;;;5020240;28;20867;-68
2022/05/27 10:30:07;;;;;;;12.07;3.17;;;17.40;99.90;;;;;;5020658;28;20337;-67
2022/05/27 10:32:41;;;;;;;14.33;2.93;;;16.60;99.90;;;;;;5019068;28;20228;-67
2022/05/27 10:35:30;;;;;;;10.83;2.53;;;16.10;99.90;;;;;;5021611;28;20243;-68
2022/05/27 10:38:11;;;;;;;9.77;2.73;;;15.80;99.90;;;;;;5021643;28;20314;-68
2022/05/27 10:40:49;;;;;;;11.30;2.30;;;16.20;99.90;;;;;;5020315;28;20614;-69
2022/05/27 10:43:32;;;;;;;6.97;2.43;;;16.80;99.90;;;;;;5018920;28;20247;-67
2022/05/27 10:46:05;;;;;;;14.03;2.90;;;17.20;99.90;;;;;;5020590;28;20252;-69
2022/05/27 10:48:55;;;;;;;9.63;2.20;;;17.40;99.90;;;;;;5019989;28;20252;-69
2022/05/27 10:51:36;;;;;;;12.47;2.87;;;17.10;99.90;;;;;;5018230;28;20252;-69
2022/05/27 10:54:24;;;;;;;9.90;2.53;;;16.50;99.90;;;;;;5019854;28;20336;-69
2022/05/27 11:03:19;;;;;;;10.27;2.17;;;17.80;99.90;;;;;;5017008;28;20327;-68
2022/05/27 11:06:03;;;;;;;10.00;2.17;;;18.40;99.90;;;;;;5022602;28;20237;-69
2022/05/27 11:08:46;;;;;;;10.10;2.57;;;18.20;99.90;;;;;;5023908;28;20245;-67
2022/05/27 11:11:25;;;;;;;7.00;2.00;;;17.20;99.90;;;;;;5022796;28;20257;-67
2022/05/27 11:17:12;;;;;;;9.83;2.33;;;16.60;99.90;;;;;;5025640;28;20233;-63
2022/05/27 11:20:12;;;;;;;12.10;2.67;;;16.10;99.90;;;;;;5024060;28;20232;-63
2022/05/27 11:22:51;;;;;;;15.77;2.70;;;16.00;99.90;;;;;;5003986;28;20255;-62
2022/05/27 11:25:39;;;;;;;10.23;2.30;;;16.80;99.90;;;;;;5025057;28;20598;-63
2022/05/27 11:28:37;;;;;;;11.23;2.47;;;17.80;99.90;;;;;;5024430;28;20339;-63
2022/05/27 11:31:18;;;;;;;12.00;2.20;;;18.60;99.90;;;;;;5022896;28;20237;-63
2022/05/27 11:33:56;;;;;;;13.93;2.57;;;19.40;99.90;;;;;;5026588;28;20328;-63
2022/05/27 11:36:40;;;;;;;7.57;1.87;;;19.70;99.90;;;;;;5026227;28;20254;-62
2022/05/27 11:39:47;;;;;;;6.40;2.20;;;18.90;99.90;;;;;;5026275;28;20245;-64
2022/05/27 11:42:43;;;;;;;12.30;2.50;;;18.20;99.90;;;;;;5024234;28;20301;-63
2022/05/27 11:45:21;;;;;;;9.30;2.20;;;17.20;99.90;;;;;;5025837;28;20249;-63
2022/05/27 11:47:59;;;;;;;9.43;2.40;;;17.20;99.90;;;;;;5025843;28;20679;-63
2022/05/27 11:51:05;;;;;;;11.07;2.27;;;17.40;99.90;;;;;;5025832;28;20247;-63
2022/05/27 11:53:58;;;;;;;8.77;2.20;;;17.20;99.90;;;;;;5020312;28;20921;-63
2022/05/27 11:56:36;;;;;;;7.33;2.20;;;16.90;99.90;;;;;;5022434;28;20295;-63
2022/05/27 11:59:11;;;;;;;8.00;2.03;;;17.20;99.90;;;;;;5022897;28;20732;-63
2022/05/27 12:01:42;;;;;;;9.70;2.20;;;17.40;99.90;;;;;;5022632;28;20241;-63
2022/05/27 12:04:16;;;;;;;10.37;2.60;;;17.40;99.90;;;;;;5023701;28;20331;-64
2022/05/27 12:06:52;;;;;;;10.40;2.27;;;17.20;99.90;;;;;;5021860;28;20321;-64
2022/05/27 12:09:28;;;;;;;11.23;2.93;;;16.90;99.90;;;;;;5023164;28;20298;-63
2022/05/27 12:12:02;;;;;;;8.83;2.17;;;17.10;99.90;;;;;;5020796;28;20263;-63
2022/05/27 12:14:37;;;;;;;7.87;2.10;;;17.10;99.90;;;;;;5024482;28;20835;-62
2022/05/27 12:17:11;;;;;;;8.77;2.00;;;17.20;99.90;;;;;;5022147;28;20651;-64
2022/05/27 12:19:43;;;;;;;8.40;1.70;;;17.50;99.90;;;;;;5022920;28;20304;-63
2022/05/27 12:22:17;;;;;;;8.03;2.00;;;17.40;99.90;;;;;;5021257;28;20319;-63
2022/05/27 12:24:49;;;;;;;7.83;1.67;;;16.90;99.90;;;;;;5024034;28;20248;-63
2022/05/27 12:27:19;;;;;;;9.90;1.90;;;16.40;99.90;;;;;;5025687;28;20236;-63
2022/05/27 12:29:50;;;;;;;5.33;1.60;;;15.90;99.90;;;;;;5026174;28;20236;-63
2022/05/27 12:32:21;;;;;;;9.70;1.90;;;16.10;99.90;;;;;;5024533;28;20240;-63
2022/05/27 12:34:50;;;;;;;7.53;1.73;;;16.20;99.90;;;;;;5025137;28;20595;-63
2022/05/27 12:37:25;;;;;;;6.83;2.00;;;16.50;99.90;;;;;;5025565;28;20251;-63
2022/05/27 12:40:23;;;;;;;8.90;2.40;;;16.50;99.90;;;;;;5026123;28;20244;-64
2022/05/27 12:42:55;;;;;;;10.00;2.13;;;16.70;99.90;;;;;;5020704;28;20562;-63
2022/05/27 12:45:38;;;;;;;7.90;2.10;;;16.70;99.90;;;;;;5023483;28;20260;-62
2022/05/27 12:48:08;;;;;;;10.73;2.30;;;16.70;99.90;;;;;;5031123;28;20235;-62
2022/05/27 12:50:39;;;;;;;8.50;2.10;;;16.90;99.90;;;;;;5032703;28;20229;-62
2022/05/27 12:53:20;;;;;;;10.73;2.57;;;17.10;99.90;;;;;;5032409;28;20727;-62
2022/05/27 13:01:44;;;;;;;8.90;2.33;;;16.60;99.90;;;;;;5030871;28;20365;-62
2022/05/27 13:04:44;;;;;;;9.20;1.90;;;15.70;99.90;;;;;;5032362;28;20298;-62
2022/05/27 13:07:13;;;;;;;10.43;1.90;;;14.90;99.90;;;;;;5010571;28;20247;-62
2022/05/27 13:09:43;;;;;;;8.40;1.90;;;14.80;99.90;;;;;;5032030;28;20233;-62
2022/05/27 13:12:52;;;;;;;8.80;2.37;;;15.00;99.90;;;;;;5032047;28;20278;-62
2022/05/27 13:15:31;;;;;;;10.37;2.40;;;15.10;99.90;;;;;;5012034;28;20244;-61
2022/05/27 13:18:11;;;;;;;9.37;2.27;;;15.10;99.90;;;;;;5023238;28;20232;-62
2022/05/27 13:20:54;;;;;;;9.00;2.40;;;15.00;99.90;;;;;;5031771;28;20274;-62
2022/05/27 13:23:25;;;;;;;9.80;1.90;;;14.90;99.90;;;;;;5031734;28;20255;-62
2022/05/27 13:26:07;;;;;;;8.00;1.90;;;15.10;99.90;;;;;;5031842;28;20747;-62
2022/05/27 13:28:40;;;;;;;7.93;2.20;;;15.10;99.90;;;;;;5031112;28;20286;-62
2022/05/27 13:31:12;;;;;;;8.27;1.73;;;15.00;99.90;;;;;;5031522;28;20699;-63
2022/05/27 13:33:48;;;;;;;7.53;2.47;;;14.90;99.90;;;;;;5031482;28;20242;-62
2022/05/27 13:36:21;;;;;;;8.07;2.00;;;15.00;99.90;;;;;;5030308;28;20228;-62
2022/05/27 13:38:56;;;;;;;9.47;2.20;;;15.10;99.90;;;;;;5030003;28;20258;-62
2022/05/27 13:41:26;;;;;;;7.27;1.80;;;15.20;99.90;;;;;;5033445;28;20649;-62
2022/05/27 13:43:57;;;;;;;8.93;2.07;;;15.30;99.90;;;;;;5031501;28;20287;-63
2022/05/27 13:46:28;;;;;;;9.40;2.00;;;15.50;99.90;;;;;;5031866;28;20267;-62